Time;durP1;ratioP1;P1;durP2;ratioP2;P2;SDS_P1;SDS_P2;PMS_P1;PMS_P2;Temp;Humidity;BMP_temperature;BMP_pressure;BME280_temperature;BME280_humidity;BME280_pressure;Samples;Min_cycle;Max_cycle;Signal;HPM_P1;HPM_P2
2023/03/29 00:02:08;;;;;;;5.25;4.10;;;6.80;99.90;;;;;;5049058;28;20052;-72
2023/03/29 00:04:34;;;;;;;5.20;3.95;;;6.80;99.90;;;;;;5036077;28;20048;-73
2023/03/29 00:07:03;;;;;;;7.70;3.78;;;6.80;99.90;;;;;;5053057;28;20428;-72
2023/03/29 00:09:31;;;;;;;7.10;3.85;;;6.80;99.90;;;;;;5066121;28;20032;-72
2023/03/29 00:11:58;;;;;;;5.95;3.83;;;6.80;99.90;;;;;;5052761;28;20041;-72
2023/03/29 00:14:25;;;;;;;5.25;3.50;;;6.80;99.90;;;;;;5049441;28;20044;-72
2023/03/29 00:16:51;;;;;;;7.82;4.38;;;6.90;99.90;;;;;;5046607;28;20082;-72
2023/03/29 00:19:17;;;;;;;7.05;3.70;;;6.80;99.90;;;;;;5070668;28;20112;-72
2023/03/29 00:21:42;;;;;;;5.25;4.03;;;6.80;99.90;;;;;;5053591;28;20515;-72
2023/03/29 00:24:08;;;;;;;6.35;4.20;;;6.80;99.90;;;;;;5043397;28;20076;-72
2023/03/29 00:26:34;;;;;;;6.97;4.30;;;6.80;99.90;;;;;;5048441;28;20103;-72
2023/03/29 00:28:59;;;;;;;8.27;4.53;;;6.80;99.90;;;;;;5035023;28;20083;-72
2023/03/29 00:31:26;;;;;;;7.57;4.20;;;6.80;99.90;;;;;;5054535;28;20036;-72
2023/03/29 00:33:51;;;;;;;6.47;4.50;;;6.80;99.90;;;;;;5036076;28;20070;-72
2023/03/29 00:36:17;;;;;;;6.93;4.57;;;6.70;99.90;;;;;;5059358;28;20064;-72
2023/03/29 00:38:43;;;;;;;7.45;4.75;;;6.70;99.90;;;;;;5045639;28;20041;-72
2023/03/29 00:41:09;;;;;;;6.68;4.35;;;6.70;99.90;;;;;;5048816;28;20097;-72
2023/03/29 00:44:28;;;;;;;10.85;4.68;;;6.70;99.90;;;;;;5064058;28;20072;-72
2023/03/29 00:46:54;;;;;;;6.75;4.38;;;6.70;99.90;;;;;;4954214;28;20042;-72
2023/03/29 00:49:20;;;;;;;6.82;4.70;;;6.70;99.90;;;;;;5028322;28;20053;-72
2023/03/29 00:51:47;;;;;;;6.93;4.72;;;6.70;99.90;;;;;;5059066;28;20039;-72
2023/03/29 00:54:17;;;;;;;6.82;4.75;;;6.70;99.90;;;;;;5059193;28;20078;-72
2023/03/29 00:56:45;;;;;;;8.65;4.80;;;6.60;99.90;;;;;;5053402;28;20048;-72
2023/03/29 00:59:16;;;;;;;8.82;5.50;;;6.70;99.90;;;;;;5065665;28;20423;-72
2023/03/29 01:01:53;;;;;;;8.57;4.55;;;6.60;99.90;;;;;;5035245;28;20088;-72
2023/03/29 01:04:42;;;;;;;8.80;5.18;;;6.60;99.90;;;;;;5035714;28;20092;-72
2023/03/29 01:07:16;;;;;;;10.52;5.15;;;6.60;99.90;;;;;;5021212;28;20124;-72
2023/03/29 01:09:47;;;;;;;8.52;5.22;;;6.60;99.90;;;;;;5052272;28;20052;-72
2023/03/29 01:12:16;;;;;;;7.50;4.68;;;6.60;99.90;;;;;;5059073;28;20428;-72
2023/03/29 01:14:51;;;;;;;8.43;5.40;;;6.60;99.90;;;;;;5062662;28;20036;-72
2023/03/29 01:17:20;;;;;;;7.55;5.43;;;6.60;99.90;;;;;;5041205;28;20110;-72
2023/03/29 01:20:06;;;;;;;8.55;6.13;;;6.60;99.90;;;;;;5046824;28;20060;-72
2023/03/29 01:23:03;;;;;;;8.48;5.97;;;6.60;99.90;;;;;;5033856;28;20048;-72
2023/03/29 01:25:39;;;;;;;9.68;6.25;;;6.60;99.90;;;;;;5042800;28;20048;-72
2023/03/29 01:28:11;;;;;;;10.00;6.85;;;6.60;99.90;;;;;;5055025;28;20068;-72
2023/03/29 01:31:02;;;;;;;12.15;6.90;;;6.50;99.90;;;;;;5047108;28;20083;-72
2023/03/29 01:33:32;;;;;;;9.57;7.13;;;6.60;99.90;;;;;;5044229;28;20122;-72
2023/03/29 01:36:13;;;;;;;11.13;7.50;;;6.60;99.90;;;;;;5036170;28;20041;-72
2023/03/29 01:38:53;;;;;;;11.88;8.43;;;6.60;99.90;;;;;;5059077;28;20392;-72
2023/03/29 01:41:19;;;;;;;12.85;9.43;;;6.50;99.90;;;;;;5054081;28;20045;-72
2023/03/29 01:43:54;;;;;;;12.13;9.77;;;6.50;99.90;;;;;;5040743;28;20044;-72
2023/03/29 01:46:37;;;;;;;12.98;9.70;;;6.50;99.90;;;;;;5058730;28;20388;-72
2023/03/29 01:49:10;;;;;;;14.25;10.48;;;6.50;99.90;;;;;;5058740;28;20086;-72
2023/03/29 01:51:57;;;;;;;17.00;14.60;;;6.50;99.90;;;;;;5063917;28;20069;-72
2023/03/29 01:54:36;;;;;;;19.02;16.20;;;6.50;99.90;;;;;;5047678;28;20037;-72
2023/03/29 01:57:04;;;;;;;18.05;15.07;;;6.50;99.90;;;;;;5059397;28;20492;-72
2023/03/29 01:59:33;;;;;;;17.45;15.13;;;6.50;99.90;;;;;;5056356;28;20497;-72
2023/03/29 02:02:03;;;;;;;19.13;14.07;;;6.50;99.90;;;;;;5046075;28;20045;-72
2023/03/29 02:04:37;;;;;;;16.35;12.88;;;6.40;99.90;;;;;;5034908;28;20072;-72
2023/03/29 02:07:07;;;;;;;16.63;14.38;;;6.50;99.90;;;;;;5036312;28;20037;-72
2023/03/29 02:09:36;;;;;;;16.80;13.48;;;6.50;99.90;;;;;;5034441;28;20053;-72
2023/03/29 02:12:03;;;;;;;17.48;13.80;;;6.50;99.90;;;;;;5060262;28;20048;-72
2023/03/29 02:14:29;;;;;;;18.05;14.80;;;6.50;99.90;;;;;;5037135;28;20090;-72
2023/03/29 02:16:55;;;;;;;15.38;12.52;;;6.50;99.90;;;;;;5041860;28;20048;-72
2023/03/29 02:19:24;;;;;;;16.88;13.52;;;6.50;99.90;;;;;;5053291;28;20041;-71
2023/03/29 02:22:03;;;;;;;19.20;15.38;;;6.50;99.90;;;;;;5052813;28;20041;-72
2023/03/29 02:24:31;;;;;;;19.02;15.02;;;6.50;99.90;;;;;;5060540;28;20052;-72
2023/03/29 02:26:58;;;;;;;20.50;15.55;;;6.50;99.90;;;;;;5056045;28;20396;-72
2023/03/29 02:29:24;;;;;;;21.47;16.03;;;6.50;99.90;;;;;;5054421;28;20037;-72
2023/03/29 02:32:04;;;;;;;17.52;13.27;;;6.50;99.90;;;;;;5060840;28;20047;-71
2023/03/29 02:34:36;;;;;;;18.80;13.43;;;6.50;99.90;;;;;;5062709;28;20057;-72
2023/03/29 02:37:09;;;;;;;18.77;14.27;;;6.50;99.90;;;;;;5056271;28;20045;-72
2023/03/29 02:39:35;;;;;;;19.10;14.55;;;6.50;99.90;;;;;;5063628;28;20045;-72
2023/03/29 02:42:02;;;;;;;18.67;14.20;;;6.50;99.90;;;;;;5065238;28;20036;-71
2023/03/29 02:44:31;;;;;;;16.95;13.68;;;6.50;99.90;;;;;;5058091;28;20043;-72
2023/03/29 02:47:03;;;;;;;21.40;13.18;;;6.40;99.90;;;;;;5037272;28;20089;-72
2023/03/29 02:49:32;;;;;;;17.05;13.93;;;6.50;99.90;;;;;;5068400;28;20045;-72
2023/03/29 02:52:06;;;;;;;17.50;14.18;;;6.40;99.90;;;;;;5054753;28;20055;-72
2023/03/29 02:54:31;;;;;;;18.98;14.43;;;6.40;99.90;;;;;;5066272;28;20040;-72
2023/03/29 02:57:05;;;;;;;16.05;13.63;;;6.40;99.90;;;;;;5064330;28;20059;-72
2023/03/29 02:59:32;;;;;;;16.30;13.25;;;6.40;99.90;;;;;;5065313;28;20056;-72
2023/03/29 03:01:58;;;;;;;16.63;13.75;;;6.40;99.90;;;;;;5063389;28;20057;-72
2023/03/29 03:04:25;;;;;;;19.70;15.07;;;6.50;99.90;;;;;;5036050;28;20495;-72
2023/03/29 03:06:51;;;;;;;17.48;13.23;;;6.50;99.90;;;;;;5038512;28;20049;-72
2023/03/29 03:09:17;;;;;;;17.20;14.85;;;6.50;99.90;;;;;;5047725;28;20130;-72
2023/03/29 03:11:43;;;;;;;17.75;13.93;;;6.50;99.90;;;;;;5070708;28;20087;-72
2023/03/29 03:14:09;;;;;;;19.85;14.93;;;6.40;99.90;;;;;;5062126;28;20065;-72
2023/03/29 03:16:35;;;;;;;19.15;14.63;;;6.50;99.90;;;;;;5061070;28;20049;-72
2023/03/29 03:19:02;;;;;;;19.90;15.73;;;6.50;99.90;;;;;;5035861;28;20047;-72
2023/03/29 03:21:30;;;;;;;18.85;15.18;;;6.50;99.90;;;;;;5055101;28;20098;-72
2023/03/29 03:23:56;;;;;;;21.52;15.88;;;6.50;99.90;;;;;;5036812;28;20439;-72
2023/03/29 03:26:23;;;;;;;17.73;15.00;;;6.50;99.90;;;;;;5055251;28;20045;-72
2023/03/29 03:28:49;;;;;;;18.95;15.30;;;6.40;99.90;;;;;;5046246;28;20096;-72
2023/03/29 03:31:16;;;;;;;19.17;15.55;;;6.50;99.90;;;;;;5059295;28;20486;-72
2023/03/29 03:33:42;;;;;;;18.90;15.90;;;6.50;99.90;;;;;;5049231;28;20045;-72
2023/03/29 03:36:09;;;;;;;19.10;15.32;;;6.50;99.90;;;;;;5066881;28;20040;-71
2023/03/29 03:38:36;;;;;;;20.92;15.00;;;6.50;99.90;;;;;;5065084;28;20448;-72
2023/03/29 03:41:02;;;;;;;23.43;16.50;;;6.50;99.90;;;;;;5058135;28;20056;-72
2023/03/29 03:43:28;;;;;;;18.98;16.05;;;6.50;99.90;;;;;;5064934;28;20123;-72
2023/03/29 03:45:55;;;;;;;18.55;15.00;;;6.50;99.90;;;;;;5056372;28;20124;-72
2023/03/29 03:48:21;;;;;;;20.23;15.90;;;6.50;99.90;;;;;;5055666;28;20049;-72
2023/03/29 03:50:56;;;;;;;17.37;15.53;;;6.50;99.90;;;;;;5065966;28;20041;-72
2023/03/29 03:53:24;;;;;;;18.45;15.68;;;6.50;99.90;;;;;;5038078;28;20064;-72
2023/03/29 03:55:57;;;;;;;19.30;16.73;;;6.50;99.90;;;;;;5066509;28;20175;-72
2023/03/29 03:58:23;;;;;;;19.02;15.23;;;6.50;99.90;;;;;;5052180;28;20051;-72
2023/03/29 04:00:49;;;;;;;20.85;16.38;;;6.40;99.90;;;;;;5063457;28;20076;-72
2023/03/29 04:03:16;;;;;;;21.67;19.43;;;6.40;99.90;;;;;;5055478;28;20519;-72
2023/03/29 04:05:44;;;;;;;25.92;22.10;;;6.50;99.90;;;;;;5058635;28;21272;-72
2023/03/29 04:08:13;;;;;;;38.40;29.63;;;6.50;99.90;;;;;;5062706;28;20033;-72
2023/03/29 04:10:40;;;;;;;42.00;31.48;;;6.50;99.90;;;;;;5053191;28;20058;-71
2023/03/29 04:13:06;;;;;;;44.92;33.33;;;6.40;99.90;;;;;;5035642;28;20064;-72
2023/03/29 04:15:37;;;;;;;52.35;39.17;;;6.50;99.90;;;;;;5045540;28;20537;-72
2023/03/29 04:18:03;;;;;;;52.25;37.83;;;6.50;99.90;;;;;;5053258;28;20099;-72
2023/03/29 04:20:28;;;;;;;31.25;21.95;;;6.50;99.90;;;;;;5053291;28;20053;-72
2023/03/29 04:22:54;;;;;;;23.27;19.98;;;6.50;99.90;;;;;;5062343;28;20036;-72
2023/03/29 04:25:22;;;;;;;20.85;16.30;;;6.50;99.90;;;;;;5046446;28;20501;-72
2023/03/29 04:27:52;;;;;;;20.85;15.93;;;6.50;99.90;;;;;;5035477;28;20033;-72
2023/03/29 04:30:17;;;;;;;19.95;17.00;;;6.50;99.90;;;;;;5064620;28;20036;-72
2023/03/29 04:32:43;;;;;;;22.70;17.63;;;6.50;99.90;;;;;;5048699;28;20401;-72
2023/03/29 04:35:09;;;;;;;20.10;16.75;;;6.50;99.90;;;;;;5059402;28;20044;-72
2023/03/29 04:37:35;;;;;;;18.80;14.65;;;6.50;99.90;;;;;;5067104;28;20040;-72
2023/03/29 04:40:03;;;;;;;19.00;16.30;;;6.50;99.90;;;;;;5061418;28;20068;-72
2023/03/29 04:42:29;;;;;;;18.70;15.45;;;6.50;99.90;;;;;;5037269;28;20033;-72
2023/03/29 04:44:56;;;;;;;18.58;14.95;;;6.50;99.90;;;;;;5057595;28;20055;-71
2023/03/29 04:47:22;;;;;;;18.60;15.93;;;6.50;99.90;;;;;;5058830;28;20048;-72
2023/03/29 04:49:47;;;;;;;19.33;15.25;;;6.60;99.90;;;;;;5058941;28;20040;-72
2023/03/29 04:52:13;;;;;;;17.95;15.35;;;6.50;99.90;;;;;;5050631;28;20047;-72
2023/03/29 04:54:39;;;;;;;17.67;14.55;;;6.50;99.90;;;;;;5058115;28;20384;-72
2023/03/29 04:57:08;;;;;;;17.85;15.30;;;6.50;99.90;;;;;;5064262;28;20166;-71
2023/03/29 04:59:34;;;;;;;20.48;14.93;;;6.50;99.90;;;;;;5052562;28;20132;-72
2023/03/29 05:02:01;;;;;;;20.67;16.08;;;6.50;99.90;;;;;;5056684;28;20088;-72
2023/03/29 05:04:28;;;;;;;17.40;13.82;;;6.50;99.90;;;;;;5053637;28;20053;-72
2023/03/29 05:06:54;;;;;;;16.75;13.00;;;6.50;99.90;;;;;;5047856;28;20064;-72
2023/03/29 05:09:20;;;;;;;17.52;15.05;;;6.60;99.90;;;;;;5058099;28;20041;-72
2023/03/29 05:11:46;;;;;;;18.40;13.73;;;6.50;99.90;;;;;;5067146;28;20044;-72
2023/03/29 05:14:12;;;;;;;19.95;13.90;;;6.60;99.90;;;;;;5060697;28;20480;-72
2023/03/29 05:16:37;;;;;;;16.80;13.88;;;6.60;99.90;;;;;;5036407;28;20400;-72
2023/03/29 05:19:04;;;;;;;17.50;15.05;;;6.60;99.90;;;;;;5033847;28;20040;-71
2023/03/29 05:21:30;;;;;;;20.77;14.93;;;6.50;99.90;;;;;;5037173;28;20051;-72
2023/03/29 05:23:55;;;;;;;18.35;14.48;;;6.50;99.90;;;;;;5060975;28;20045;-72
2023/03/29 05:26:22;;;;;;;18.85;15.40;;;6.60;99.90;;;;;;5062801;28;20037;-72
2023/03/29 05:28:49;;;;;;;20.08;15.88;;;6.50;99.90;;;;;;5038114;28;20134;-72
2023/03/29 05:31:15;;;;;;;18.58;15.38;;;6.50;99.90;;;;;;5054282;28;20072;-72
2023/03/29 05:33:41;;;;;;;19.95;15.52;;;6.50;99.90;;;;;;5066766;28;20094;-72
2023/03/29 05:36:09;;;;;;;19.85;16.95;;;6.50;99.90;;;;;;5062294;28;20049;-71
2023/03/29 05:38:37;;;;;;;18.40;15.70;;;6.50;99.90;;;;;;5044078;28;20068;-72
2023/03/29 05:41:02;;;;;;;23.67;17.23;;;6.50;99.90;;;;;;5033891;28;20053;-72
2023/03/29 05:43:28;;;;;;;18.67;16.52;;;6.60;99.90;;;;;;5061099;28;20059;-75
2023/03/29 05:45:55;;;;;;;19.55;16.45;;;6.50;99.90;;;;;;5049435;28;20128;-71
2023/03/29 05:48:22;;;;;;;21.13;18.77;;;6.50;99.90;;;;;;5064329;28;20063;-71
2023/03/29 05:50:50;;;;;;;20.80;16.15;;;6.50;99.90;;;;;;5048369;28;20034;-71
2023/03/29 05:53:17;;;;;;;21.77;16.95;;;6.50;99.90;;;;;;5067799;28;20040;-71
2023/03/29 05:55:43;;;;;;;20.45;18.25;;;6.50;99.90;;;;;;5063311;28;20128;-71
2023/03/29 05:58:11;;;;;;;20.88;17.60;;;6.50;99.90;;;;;;5068543;28;20036;-70
2023/03/29 06:00:37;;;;;;;22.67;17.65;;;6.50;99.90;;;;;;5065757;28;20067;-70
2023/03/29 06:03:03;;;;;;;23.55;18.58;;;6.50;99.90;;;;;;5065262;28;20085;-71
2023/03/29 06:05:29;;;;;;;21.90;19.15;;;6.50;99.90;;;;;;5061594;28;20033;-70
2023/03/29 06:07:55;;;;;;;23.08;17.92;;;6.50;99.90;;;;;;5061700;28;20059;-70
2023/03/29 06:10:22;;;;;;;22.95;18.80;;;6.50;99.90;;;;;;5064158;28;20029;-71
2023/03/29 06:12:49;;;;;;;20.60;18.40;;;6.50;99.90;;;;;;5047450;28;20080;-70
2023/03/29 06:15:15;;;;;;;22.13;18.38;;;6.50;99.90;;;;;;5045796;28;20051;-70
2023/03/29 06:17:43;;;;;;;23.55;18.05;;;6.50;99.90;;;;;;5043324;28;20369;-70
2023/03/29 06:20:10;;;;;;;23.70;19.25;;;6.50;99.90;;;;;;5062768;28;20124;-70
2023/03/29 06:22:40;;;;;;;23.58;20.45;;;6.50;99.90;;;;;;5063149;28;20044;-70
2023/03/29 06:25:12;;;;;;;21.10;18.67;;;6.50;99.90;;;;;;5065085;28;20691;-71
2023/03/29 06:27:38;;;;;;;22.83;17.23;;;6.50;99.90;;;;;;5068997;28;20072;-70
2023/03/29 06:30:04;;;;;;;24.60;18.25;;;6.50;99.90;;;;;;5049278;28;20076;-70
2023/03/29 06:32:32;;;;;;;23.77;17.88;;;6.60;99.90;;;;;;5071176;28;20106;-71
2023/03/29 06:34:58;;;;;;;21.15;18.08;;;6.60;99.90;;;;;;5068509;28;20064;-71
2023/03/29 06:37:24;;;;;;;22.70;17.08;;;6.60;99.90;;;;;;5054137;28;20036;-71
2023/03/29 06:39:52;;;;;;;23.83;17.42;;;6.60;99.90;;;;;;5054274;28;20036;-71
2023/03/29 06:42:19;;;;;;;20.52;16.52;;;6.70;99.90;;;;;;5064603;28;20077;-71
2023/03/29 06:44:45;;;;;;;24.50;18.63;;;6.70;99.90;;;;;;5061944;28;20048;-70
2023/03/29 06:47:16;;;;;;;23.27;17.10;;;6.70;99.90;;;;;;5067904;28;20047;-70
2023/03/29 06:49:42;;;;;;;22.60;15.93;;;6.70;99.90;;;;;;5070579;28;20036;-70
2023/03/29 06:52:09;;;;;;;24.00;19.13;;;6.70;99.90;;;;;;5043662;28;20111;-71
2023/03/29 06:54:35;;;;;;;22.92;18.15;;;6.70;99.90;;;;;;5067828;28;20056;-71
2023/03/29 06:57:01;;;;;;;22.98;16.67;;;6.80;99.90;;;;;;5071413;28;20036;-71
2023/03/29 06:59:27;;;;;;;19.95;17.63;;;6.80;99.90;;;;;;5064113;28;20048;-71
2023/03/29 07:01:53;;;;;;;22.75;17.67;;;6.80;99.90;;;;;;5064834;28;20040;-71
2023/03/29 07:04:22;;;;;;;20.27;17.40;;;6.80;99.90;;;;;;5040728;28;20045;-70
2023/03/29 07:06:50;;;;;;;23.83;16.70;;;6.80;99.90;;;;;;5057755;28;20037;-71
2023/03/29 07:09:18;;;;;;;22.67;18.08;;;6.90;99.90;;;;;;5046944;28;20044;-71
2023/03/29 07:11:45;;;;;;;21.08;16.58;;;6.90;99.90;;;;;;5060246;28;20037;-70
2023/03/29 07:14:11;;;;;;;24.40;17.13;;;6.90;99.90;;;;;;5073830;28;20127;-70
2023/03/29 07:16:37;;;;;;;20.38;17.10;;;6.90;99.90;;;;;;5068231;28;20115;-71
2023/03/29 07:19:04;;;;;;;26.95;19.00;;;7.00;99.90;;;;;;5067134;28;20048;-70
2023/03/29 07:21:30;;;;;;;25.58;19.48;;;7.00;99.90;;;;;;5042900;28;20044;-71
2023/03/29 07:23:59;;;;;;;27.58;19.35;;;7.00;99.90;;;;;;5042199;28;20055;-72
2023/03/29 07:26:24;;;;;;;29.83;21.52;;;7.10;99.90;;;;;;5066732;28;20086;-72
2023/03/29 07:28:50;;;;;;;27.15;20.33;;;7.00;99.90;;;;;;5071827;28;20408;-69
2023/03/29 07:31:16;;;;;;;23.00;17.10;;;7.10;99.90;;;;;;5063070;28;20051;-69
2023/03/29 07:33:43;;;;;;;21.48;17.15;;;7.10;99.90;;;;;;5051639;28;20056;-67
2023/03/29 07:36:09;;;;;;;19.95;16.17;;;7.20;99.90;;;;;;5067165;28;20481;-68
2023/03/29 07:38:37;;;;;;;18.38;16.48;;;7.20;99.90;;;;;;5043820;28;20064;-68
2023/03/29 07:41:03;;;;;;;;;;;7.20;99.90;;;;;;5066122;28;20037;-68
2023/03/29 07:43:29;;;;;;;17.13;14.15;;;7.20;99.90;;;;;;5059713;28;20375;-68
2023/03/29 07:45:54;;;;;;;19.00;15.50;;;7.20;99.90;;;;;;5067423;28;20044;-68
2023/03/29 07:48:21;;;;;;;19.60;15.45;;;7.20;99.90;;;;;;5062557;28;20037;-68
2023/03/29 07:50:46;;;;;;;16.85;14.60;;;7.30;99.90;;;;;;5059597;28;20051;-69
2023/03/29 07:53:12;;;;;;;17.50;14.13;;;7.30;99.90;;;;;;5061707;28;20037;-68
2023/03/29 07:55:45;;;;;;;18.65;15.52;;;7.30;99.90;;;;;;5041922;28;20044;-69
2023/03/29 07:58:14;;;;;;;17.08;13.30;;;7.30;99.90;;;;;;5060843;28;20045;-69
2023/03/29 08:00:42;;;;;;;18.02;13.48;;;7.40;99.90;;;;;;5068374;28;20045;-70
2023/03/29 08:03:10;;;;;;;16.02;13.52;;;7.40;99.90;;;;;;5044214;28;20076;-69
2023/03/29 08:05:36;;;;;;;14.82;12.43;;;7.40;99.90;;;;;;5059837;28;20045;-70
2023/03/29 08:08:02;;;;;;;16.33;13.15;;;7.40;99.90;;;;;;5062973;28;20120;-71
2023/03/29 08:10:27;;;;;;;14.40;12.75;;;7.40;99.90;;;;;;5054692;28;20037;-70
2023/03/29 08:12:56;;;;;;;16.15;11.60;;;7.50;99.90;;;;;;5055534;28;20090;-69
2023/03/29 08:15:26;;;;;;;13.65;11.48;;;7.50;99.90;;;;;;5067150;28;20068;-69
2023/03/29 08:17:52;;;;;;;16.17;10.73;;;7.50;99.90;;;;;;5069751;28;20057;-69
2023/03/29 08:20:18;;;;;;;14.90;11.00;;;7.50;99.90;;;;;;5067899;28;20036;-70
2023/03/29 08:22:44;;;;;;;13.23;10.73;;;7.60;99.90;;;;;;5064053;28;20381;-69
2023/03/29 08:25:11;;;;;;;14.27;10.93;;;7.60;99.90;;;;;;5066936;28;20036;-69
2023/03/29 08:27:36;;;;;;;14.50;10.67;;;7.60;99.90;;;;;;5068866;28;20127;-67
2023/03/29 08:30:08;;;;;;;15.45;10.77;;;7.70;99.90;;;;;;5064310;28;20111;-68
2023/03/29 08:32:35;;;;;;;15.45;11.18;;;7.70;99.90;;;;;;5069794;28;20049;-69
2023/03/29 08:35:03;;;;;;;14.15;10.88;;;7.60;99.90;;;;;;5046251;28;20040;-69
2023/03/29 08:37:30;;;;;;;12.85;10.20;;;7.60;99.90;;;;;;5067649;28;20036;-68
2023/03/29 08:39:56;;;;;;;13.82;10.95;;;7.70;99.90;;;;;;5053017;28;20048;-68
2023/03/29 08:42:40;;;;;;;13.55;10.10;;;7.80;99.90;;;;;;5058308;28;20044;-69
2023/03/29 08:45:32;;;;;;;12.40;10.07;;;7.80;99.90;;;;;;5053653;28;20055;-70
2023/03/29 08:48:28;;;;;;;13.07;10.27;;;7.90;99.90;;;;;;5062882;28;20044;-69
2023/03/29 08:51:03;;;;;;;13.32;10.65;;;7.90;99.90;;;;;;5063962;28;20048;-70
2023/03/29 08:53:44;;;;;;;14.63;10.32;;;8.00;99.90;;;;;;5046575;28;20048;-70
2023/03/29 08:56:17;;;;;;;15.45;10.35;;;8.00;99.90;;;;;;5065340;28;20041;-70
2023/03/29 08:58:45;;;;;;;13.63;9.65;;;8.10;99.90;;;;;;5063368;28;20094;-71
2023/03/29 09:01:11;;;;;;;15.73;11.00;;;8.10;99.90;;;;;;5062723;28;20057;-69
2023/03/29 09:03:57;;;;;;;13.85;10.13;;;8.20;99.90;;;;;;5062617;28;20097;-71
2023/03/29 09:06:23;;;;;;;13.70;9.73;;;8.20;99.90;;;;;;5063758;28;20099;-72
2023/03/29 09:08:51;;;;;;;12.73;9.35;;;8.40;99.90;;;;;;5067954;28;20438;-73
2023/03/29 09:11:22;;;;;;;13.90;9.38;;;8.40;99.90;;;;;;5034111;28;20041;-74
2023/03/29 09:14:06;;;;;;;14.07;9.48;;;8.40;99.90;;;;;;5043618;28;20057;-70
2023/03/29 09:16:47;;;;;;;13.43;10.05;;;8.50;99.90;;;;;;5052916;28;20037;-70
2023/03/29 09:19:31;;;;;;;12.55;9.13;;;8.60;99.90;;;;;;5057307;28;20045;-70
2023/03/29 09:22:16;;;;;;;12.68;9.32;;;8.70;99.90;;;;;;5037724;28;20032;-70
2023/03/29 09:24:52;;;;;;;12.18;9.63;;;8.80;99.90;;;;;;5055653;28;20453;-71
2023/03/29 09:27:33;;;;;;;14.13;9.50;;;8.80;99.90;;;;;;5037439;28;20116;-72
2023/03/29 09:30:14;;;;;;;13.07;9.00;;;8.90;99.90;;;;;;5067145;28;20101;-71
2023/03/29 09:32:47;;;;;;;12.10;9.45;;;8.90;99.90;;;;;;5034146;28;20128;-69
2023/03/29 09:35:32;;;;;;;15.63;9.02;;;9.00;99.90;;;;;;5060182;28;20119;-68
2023/03/29 09:37:59;;;;;;;10.68;8.63;;;9.10;99.90;;;;;;5065487;28;20048;-69
2023/03/29 09:40:28;;;;;;;10.47;9.20;;;9.10;99.90;;;;;;5041749;28;20051;-70
2023/03/29 09:42:55;;;;;;;11.95;9.25;;;9.10;99.90;;;;;;5062924;28;20049;-70
2023/03/29 09:45:21;;;;;;;12.38;8.88;;;9.20;99.90;;;;;;5060552;28;20044;-70
2023/03/29 09:48:18;;;;;;;11.70;9.60;;;9.20;99.90;;;;;;5067644;28;20048;-69
2023/03/29 09:50:46;;;;;;;13.07;9.50;;;9.30;99.90;;;;;;5038888;28;20080;-70
2023/03/29 09:53:14;;;;;;;13.15;9.05;;;9.40;99.90;;;;;;5052871;28;20041;-71
2023/03/29 09:55:42;;;;;;;11.02;9.30;;;9.40;99.90;;;;;;5054608;28;20048;-70
2023/03/29 09:58:17;;;;;;;13.88;9.90;;;9.50;99.90;;;;;;5053560;28;20085;-70
2023/03/29 10:00:43;;;;;;;13.48;9.45;;;9.50;99.90;;;;;;5034266;28;20489;-71
2023/03/29 10:03:20;;;;;;;12.05;9.48;;;9.60;99.90;;;;;;5054066;28;20045;-72
2023/03/29 10:05:49;;;;;;;15.90;9.98;;;9.60;99.90;;;;;;5035567;28;20045;-70
2023/03/29 10:08:39;;;;;;;13.23;10.00;;;9.70;99.90;;;;;;5040974;28;20499;-71
2023/03/29 10:11:22;;;;;;;15.05;9.98;;;9.70;99.90;;;;;;5046741;28;20123;-71
2023/03/29 10:13:53;;;;;;;15.75;10.35;;;9.70;99.90;;;;;;5060643;28;20036;-72
2023/03/29 10:16:21;;;;;;;16.42;11.73;;;9.80;99.90;;;;;;5050558;28;20041;-73
2023/03/29 10:18:49;;;;;;;15.63;11.25;;;9.80;99.90;;;;;;5050372;28;20107;-73
2023/03/29 10:21:15;;;;;;;17.80;12.50;;;9.90;99.90;;;;;;5054863;28;20044;-69
2023/03/29 10:23:42;;;;;;;14.93;12.43;;;9.90;99.90;;;;;;5057330;28;20355;-69
2023/03/29 10:26:28;;;;;;;15.52;11.43;;;9.90;99.90;;;;;;5050646;28;20370;-67
2023/03/29 10:28:56;;;;;;;14.13;11.85;;;10.00;99.90;;;;;;5049188;28;20049;-68
2023/03/29 10:31:23;;;;;;;15.40;12.95;;;10.00;99.90;;;;;;5031735;28;20519;-70
2023/03/29 10:33:51;;;;;;;15.45;12.70;;;10.10;99.90;;;;;;5038946;28;20041;-67
2023/03/29 10:36:18;;;;;;;15.93;11.57;;;10.10;99.90;;;;;;5054093;28;20153;-67
2023/03/29 10:38:44;;;;;;;15.00;11.65;;;10.20;99.90;;;;;;5059713;28;20045;-71
2023/03/29 10:41:11;;;;;;;15.20;11.60;;;10.20;99.90;;;;;;5064229;28;20047;-70
2023/03/29 10:43:38;;;;;;;12.77;11.43;;;10.20;99.90;;;;;;5059978;28;20123;-68
2023/03/29 10:46:18;;;;;;;14.20;11.88;;;10.20;99.90;;;;;;5051591;28;20041;-69
2023/03/29 10:48:50;;;;;;;14.38;11.77;;;10.30;99.90;;;;;;5059438;28;20094;-70
2023/03/29 10:51:17;;;;;;;13.57;11.63;;;10.30;99.90;;;;;;5055270;28;20049;-70
2023/03/29 10:53:43;;;;;;;;;;;10.40;99.90;;;;;;5035568;28;20068;-69
2023/03/29 10:56:29;;;;;;;14.38;11.52;;;10.40;99.90;;;;;;5055850;28;19963;-69
2023/03/29 10:59:22;;;;;;;14.98;11.23;;;10.50;99.90;;;;;;5037401;28;20137;-70
2023/03/29 11:02:13;;;;;;;11.60;10.40;;;10.60;99.90;;;;;;5041369;28;20496;-69
2023/03/29 11:04:57;;;;;;;15.40;10.98;;;10.70;99.90;;;;;;5053413;28;20040;-69
2023/03/29 11:07:40;;;;;;;12.00;10.80;;;10.70;99.90;;;;;;5052340;28;20044;-69
2023/03/29 11:10:33;;;;;;;13.82;10.70;;;10.80;99.90;;;;;;5053854;28;20049;-69
2023/03/29 11:13:11;;;;;;;12.57;10.57;;;10.80;99.90;;;;;;5054749;28;20049;-69
2023/03/29 11:15:44;;;;;;;12.60;10.32;;;10.90;99.90;;;;;;5056866;28;20072;-69
2023/03/29 11:18:26;;;;;;;14.00;10.32;;;11.00;99.90;;;;;;5061915;28;20128;-69
2023/03/29 11:21:16;;;;;;;14.02;10.57;;;11.00;99.90;;;;;;5043042;28;20063;-69
2023/03/29 11:24:10;;;;;;;14.18;10.52;;;11.10;99.90;;;;;;5052665;28;20044;-71
2023/03/29 11:26:55;;;;;;;12.38;9.60;;;11.20;99.90;;;;;;5063579;28;20044;-69
2023/03/29 11:29:32;;;;;;;12.80;10.25;;;11.30;99.90;;;;;;5052798;28;20132;-71
2023/03/29 11:32:24;;;;;;;12.70;10.00;;;11.30;99.90;;;;;;5058005;28;20119;-72
2023/03/29 11:34:58;;;;;;;13.85;10.25;;;11.40;99.90;;;;;;5056493;28;20136;-70
2023/03/29 11:37:54;;;;;;;13.57;9.70;;;11.50;99.90;;;;;;5065546;28;20033;-70
2023/03/29 11:40:34;;;;;;;12.30;9.67;;;11.60;99.90;;;;;;5057112;28;20144;-68
2023/03/29 11:43:11;;;;;;;13.85;9.75;;;11.80;99.90;;;;;;5055055;28;20045;-70
2023/03/29 11:45:51;;;;;;;12.32;9.43;;;11.90;99.90;;;;;;5053752;28;20484;-70
2023/03/29 11:48:22;;;;;;;11.75;9.13;;;12.00;99.90;;;;;;5044634;28;20048;-70
2023/03/29 11:51:26;;;;;;;13.77;9.27;;;12.10;99.90;;;;;;5052811;28;20152;-70
2023/03/29 11:54:06;;;;;;;12.07;9.40;;;12.10;99.90;;;;;;4964602;28;20054;-70
2023/03/29 11:56:36;;;;;;;15.52;10.40;;;12.20;99.90;;;;;;5025893;28;20061;-70
2023/03/29 11:59:13;;;;;;;14.40;9.00;;;12.30;99.90;;;;;;5053366;28;20076;-71
2023/03/29 12:01:48;;;;;;;13.43;9.65;;;12.30;99.90;;;;;;5045374;28;20059;-71
2023/03/29 12:04:41;;;;;;;12.50;9.00;;;12.40;99.90;;;;;;5062597;28;20044;-73
2023/03/29 12:07:18;;;;;;;12.55;9.45;;;12.40;99.90;;;;;;5046162;28;20791;-71
2023/03/29 12:10:01;;;;;;;12.70;8.20;;;12.50;99.90;;;;;;5056785;28;20072;-70
2023/03/29 12:12:41;;;;;;;10.50;8.73;;;12.50;99.90;;;;;;5068750;28;20507;-70
2023/03/29 12:15:20;;;;;;;14.32;9.07;;;12.60;99.90;;;;;;5046191;28;20045;-70
2023/03/29 12:17:55;;;;;;;13.32;8.80;;;12.60;99.90;;;;;;5060898;28;20113;-71
2023/03/29 12:20:27;;;;;;;11.60;8.32;;;12.60;99.90;;;;;;5065283;28;20551;-70
2023/03/29 12:22:53;;;;;;;10.27;8.05;;;12.60;99.90;;;;;;5046365;28;20483;-72
2023/03/29 12:25:51;;;;;;;12.07;8.40;;;12.70;99.90;;;;;;5063842;28;20051;-71
2023/03/29 12:28:35;;;;;;;10.27;7.97;;;12.80;99.90;;;;;;5064909;28;20407;-71
2023/03/29 12:31:19;;;;;;;12.90;8.18;;;12.90;99.90;;;;;;5062778;28;20037;-70
2023/03/29 12:34:00;;;;;;;12.73;7.93;;;13.00;99.90;;;;;;5057514;28;20037;-71
2023/03/29 12:37:00;;;;;;;13.85;8.63;;;13.00;99.90;;;;;;5034782;28;20044;-71
2023/03/29 12:39:27;;;;;;;12.70;8.70;;;13.00;99.90;;;;;;5061766;28;20045;-71
2023/03/29 12:42:20;;;;;;;21.70;10.77;;;13.10;99.90;;;;;;5052555;28;20037;-70
2023/03/29 12:44:57;;;;;;;11.38;8.90;;;13.20;99.90;;;;;;5059466;28;20041;-71
2023/03/29 12:47:26;;;;;;;17.58;9.57;;;13.20;99.90;;;;;;5058480;28;20040;-71
2023/03/29 12:49:56;;;;;;;13.13;9.13;;;13.20;99.90;;;;;;5057512;28;20095;-71
2023/03/29 12:52:33;;;;;;;12.07;9.45;;;13.20;99.90;;;;;;5035584;28;20080;-70
2023/03/29 12:55:03;;;;;;;12.45;9.45;;;13.20;99.90;;;;;;5063483;28;20120;-71
2023/03/29 12:57:41;;;;;;;14.55;9.63;;;13.20;99.90;;;;;;5041395;28;20048;-71
2023/03/29 13:00:21;;;;;;;14.35;9.25;;;13.20;99.90;;;;;;5052248;28;20138;-70
2023/03/29 13:03:01;;;;;;;13.38;9.75;;;13.10;99.90;;;;;;5037457;28;20056;-71